sensor_id;sensor_type;location;lat;lon;timestamp;temperature;humidity
14771;DHT22;7477;45.222;5.688;2022-09-14T00:01:28;23.40;99.90
14771;DHT22;7477;45.222;5.688;2022-09-14T00:04:47;23.40;99.90
14771;DHT22;7477;45.222;5.688;2022-09-14T00:08:07;23.30;99.90
14771;DHT22;7477;45.222;5.688;2022-09-14T00:11:29;23.40;99.90
14771;DHT22;7477;45.222;5.688;2022-09-14T00:14:49;23.40;99.90
14771;DHT22;7477;45.222;5.688;2022-09-14T00:18:09;23.30;99.90
14771;DHT22;7477;45.222;5.688;2022-09-14T00:21:29;23.20;99.90
14771;DHT22;7477;45.222;5.688;2022-09-14T00:24:48;23.10;99.90
14771;DHT22;7477;45.222;5.688;2022-09-14T00:28:07;23.10;99.90
14771;DHT22;7477;45.222;5.688;2022-09-14T00:31:26;23.30;99.90
14771;DHT22;7477;45.222;5.688;2022-09-14T00:34:45;23.30;99.90
14771;DHT22;7477;45.222;5.688;2022-09-14T00:38:05;23.30;99.90
14771;DHT22;7477;45.222;5.688;2022-09-14T00:41:31;23.20;99.90
14771;DHT22;7477;45.222;5.688;2022-09-14T00:48:10;23.40;99.90
14771;DHT22;7477;45.222;5.688;2022-09-14T00:51:31;23.30;99.90
14771;DHT22;7477;45.222;5.688;2022-09-14T00:54:57;23.40;99.90
14771;DHT22;7477;45.222;5.688;2022-09-14T00:58:17;23.30;99.90
14771;DHT22;7477;45.222;5.688;2022-09-14T01:01:37;23.20;99.90
14771;DHT22;7477;45.222;5.688;2022-09-14T01:04:56;23.10;99.90
14771;DHT22;7477;45.222;5.688;2022-09-14T01:09:25;23.20;99.90
14771;DHT22;7477;45.222;5.688;2022-09-14T01:16:33;23.10;99.90
14771;DHT22;7477;45.222;5.688;2022-09-14T01:30:46;23.20;99.90
14771;DHT22;7477;45.222;5.688;2022-09-14T01:34:45;23.20;99.90
14771;DHT22;7477;45.222;5.688;2022-09-14T01:38:07;23.30;99.90
14771;DHT22;7477;45.222;5.688;2022-09-14T01:41:29;23.20;99.90
14771;DHT22;7477;45.222;5.688;2022-09-14T01:44:54;23.20;99.90
14771;DHT22;7477;45.222;5.688;2022-09-14T01:48:17;23.30;99.90
14771;DHT22;7477;45.222;5.688;2022-09-14T01:51:44;23.30;99.90
14771;DHT22;7477;45.222;5.688;2022-09-14T01:55:06;23.10;99.90
14771;DHT22;7477;45.222;5.688;2022-09-14T01:58:38;23.00;99.90
14771;DHT22;7477;45.222;5.688;2022-09-14T02:09:07;22.80;99.90
14771;DHT22;7477;45.222;5.688;2022-09-14T02:12:28;22.70;99.90
14771;DHT22;7477;45.222;5.688;2022-09-14T02:15:47;22.70;99.90
14771;DHT22;7477;45.222;5.688;2022-09-14T02:19:06;22.70;99.90
14771;DHT22;7477;45.222;5.688;2022-09-14T02:22:27;22.70;99.90
14771;DHT22;7477;45.222;5.688;2022-09-14T02:25:47;22.70;99.90
14771;DHT22;7477;45.222;5.688;2022-09-14T02:29:07;22.70;99.90
14771;DHT22;7477;45.222;5.688;2022-09-14T02:36:18;22.60;99.90
14771;DHT22;7477;45.222;5.688;2022-09-14T02:43:48;22.50;99.90
14771;DHT22;7477;45.222;5.688;2022-09-14T02:47:26;22.50;99.90
14771;DHT22;7477;45.222;5.688;2022-09-14T02:50:53;22.40;99.90
14771;DHT22;7477;45.222;5.688;2022-09-14T02:54:22;22.40;99.90
14771;DHT22;7477;45.222;5.688;2022-09-14T02:58:07;22.40;99.90
14771;DHT22;7477;45.222;5.688;2022-09-14T03:01:26;22.40;99.90
14771;DHT22;7477;45.222;5.688;2022-09-14T03:04:46;22.30;99.90
14771;DHT22;7477;45.222;5.688;2022-09-14T03:08:06;22.40;99.90
14771;DHT22;7477;45.222;5.688;2022-09-14T03:11:25;22.40;99.90
14771;DHT22;7477;45.222;5.688;2022-09-14T03:14:44;22.40;99.90
14771;DHT22;7477;45.222;5.688;2022-09-14T03:18:05;22.40;99.90
14771;DHT22;7477;45.222;5.688;2022-09-14T03:21:24;22.50;99.90
14771;DHT22;7477;45.222;5.688;2022-09-14T03:24:43;22.40;99.90
14771;DHT22;7477;45.222;5.688;2022-09-14T03:28:02;22.30;99.90
14771;DHT22;7477;45.222;5.688;2022-09-14T03:31:22;22.30;99.90
14771;DHT22;7477;45.222;5.688;2022-09-14T03:34:41;22.40;99.90
14771;DHT22;7477;45.222;5.688;2022-09-14T03:38:01;22.40;99.90
14771;DHT22;7477;45.222;5.688;2022-09-14T03:41:22;22.40;99.90
14771;DHT22;7477;45.222;5.688;2022-09-14T03:44:41;22.30;99.90
14771;DHT22;7477;45.222;5.688;2022-09-14T03:48:01;22.30;99.90
14771;DHT22;7477;45.222;5.688;2022-09-14T03:51:21;22.40;99.90
14771;DHT22;7477;45.222;5.688;2022-09-14T03:54:40;22.40;99.90
14771;DHT22;7477;45.222;5.688;2022-09-14T03:57:59;22.50;99.90
14771;DHT22;7477;45.222;5.688;2022-09-14T04:01:21;22.50;99.90
14771;DHT22;7477;45.222;5.688;2022-09-14T04:04:40;22.80;99.90
14771;DHT22;7477;45.222;5.688;2022-09-14T04:07:59;22.80;99.90
14771;DHT22;7477;45.222;5.688;2022-09-14T04:11:22;22.70;99.90
14771;DHT22;7477;45.222;5.688;2022-09-14T04:14:41;22.70;99.90
14771;DHT22;7477;45.222;5.688;2022-09-14T04:18:01;22.70;99.90
14771;DHT22;7477;45.222;5.688;2022-09-14T04:21:22;22.40;99.90
14771;DHT22;7477;45.222;5.688;2022-09-14T04:24:42;22.30;99.90
14771;DHT22;7477;45.222;5.688;2022-09-14T04:28:01;22.40;99.90
14771;DHT22;7477;45.222;5.688;2022-09-14T04:31:21;22.40;99.90
14771;DHT22;7477;45.222;5.688;2022-09-14T04:34:40;22.30;99.90
14771;DHT22;7477;45.222;5.688;2022-09-14T04:37:59;22.20;99.90
14771;DHT22;7477;45.222;5.688;2022-09-14T04:41:19;22.10;99.90
14771;DHT22;7477;45.222;5.688;2022-09-14T04:44:39;22.10;99.90
14771;DHT22;7477;45.222;5.688;2022-09-14T04:47:59;22.20;99.90
14771;DHT22;7477;45.222;5.688;2022-09-14T04:51:21;22.20;99.90
14771;DHT22;7477;45.222;5.688;2022-09-14T04:54:40;22.20;99.90
14771;DHT22;7477;45.222;5.688;2022-09-14T04:58:00;22.20;99.90
14771;DHT22;7477;45.222;5.688;2022-09-14T05:01:22;22.50;99.90
14771;DHT22;7477;45.222;5.688;2022-09-14T05:04:41;22.30;99.90
14771;DHT22;7477;45.222;5.688;2022-09-14T05:08:01;22.20;99.90
14771;DHT22;7477;45.222;5.688;2022-09-14T05:11:22;22.10;99.90
14771;DHT22;7477;45.222;5.688;2022-09-14T05:14:42;22.00;99.90
14771;DHT22;7477;45.222;5.688;2022-09-14T05:18:01;21.90;99.90
14771;DHT22;7477;45.222;5.688;2022-09-14T05:21:22;21.90;99.90
14771;DHT22;7477;45.222;5.688;2022-09-14T05:24:41;21.90;99.90
14771;DHT22;7477;45.222;5.688;2022-09-14T05:28:01;21.70;99.90
14771;DHT22;7477;45.222;5.688;2022-09-14T05:31:21;21.60;99.90
14771;DHT22;7477;45.222;5.688;2022-09-14T05:34:41;21.50;99.90
14771;DHT22;7477;45.222;5.688;2022-09-14T05:38:00;21.50;99.90
14771;DHT22;7477;45.222;5.688;2022-09-14T05:41:19;21.50;99.90
14771;DHT22;7477;45.222;5.688;2022-09-14T05:44:38;21.40;99.90
14771;DHT22;7477;45.222;5.688;2022-09-14T05:48:01;21.40;99.90
14771;DHT22;7477;45.222;5.688;2022-09-14T05:51:24;21.40;99.90
14771;DHT22;7477;45.222;5.688;2022-09-14T05:54:44;21.30;99.90
14771;DHT22;7477;45.222;5.688;2022-09-14T05:58:03;21.20;99.90
14771;DHT22;7477;45.222;5.688;2022-09-14T06:01:26;21.10;99.90
14771;DHT22;7477;45.222;5.688;2022-09-14T06:04:46;21.10;99.90
14771;DHT22;7477;45.222;5.688;2022-09-14T06:08:05;21.10;99.90
14771;DHT22;7477;45.222;5.688;2022-09-14T06:11:30;21.10;99.90
14771;DHT22;7477;45.222;5.688;2022-09-14T06:14:50;21.00;99.90
14771;DHT22;7477;45.222;5.688;2022-09-14T06:18:09;21.00;99.90
14771;DHT22;7477;45.222;5.688;2022-09-14T06:21:34;20.90;99.90
14771;DHT22;7477;45.222;5.688;2022-09-14T06:24:53;21.00;99.90
14771;DHT22;7477;45.222;5.688;2022-09-14T06:28:14;20.90;99.90
14771;DHT22;7477;45.222;5.688;2022-09-14T06:31:33;21.00;99.90
14771;DHT22;7477;45.222;5.688;2022-09-14T06:34:52;21.00;99.90
14771;DHT22;7477;45.222;5.688;2022-09-14T06:38:12;20.90;99.90
14771;DHT22;7477;45.222;5.688;2022-09-14T06:41:33;20.90;99.90
14771;DHT22;7477;45.222;5.688;2022-09-14T06:44:52;20.80;99.90
14771;DHT22;7477;45.222;5.688;2022-09-14T06:48:11;20.80;99.90
14771;DHT22;7477;45.222;5.688;2022-09-14T06:51:42;20.80;99.90
14771;DHT22;7477;45.222;5.688;2022-09-14T06:55:02;21.10;99.90
14771;DHT22;7477;45.222;5.688;2022-09-14T06:58:21;21.00;99.90
14771;DHT22;7477;45.222;5.688;2022-09-14T07:01:42;20.90;99.90
14771;DHT22;7477;45.222;5.688;2022-09-14T07:05:03;20.90;99.90
14771;DHT22;7477;45.222;5.688;2022-09-14T07:08:22;20.90;99.90
14771;DHT22;7477;45.222;5.688;2022-09-14T07:11:42;20.80;99.90
14771;DHT22;7477;45.222;5.688;2022-09-14T07:15:01;20.80;99.90
14771;DHT22;7477;45.222;5.688;2022-09-14T07:18:23;20.70;99.90
14771;DHT22;7477;45.222;5.688;2022-09-14T07:21:46;21.10;99.90
14771;DHT22;7477;45.222;5.688;2022-09-14T07:25:07;21.10;99.90
14771;DHT22;7477;45.222;5.688;2022-09-14T07:28:26;21.00;99.90
14771;DHT22;7477;45.222;5.688;2022-09-14T07:31:50;21.10;99.90
14771;DHT22;7477;45.222;5.688;2022-09-14T07:35:10;20.90;99.90
14771;DHT22;7477;45.222;5.688;2022-09-14T07:38:29;20.90;99.90
14771;DHT22;7477;45.222;5.688;2022-09-14T07:41:48;21.00;99.90
14771;DHT22;7477;45.222;5.688;2022-09-14T07:45:08;21.10;99.90
14771;DHT22;7477;45.222;5.688;2022-09-14T07:48:27;21.00;99.90
14771;DHT22;7477;45.222;5.688;2022-09-14T07:51:47;20.90;99.90
14771;DHT22;7477;45.222;5.688;2022-09-14T07:55:07;20.90;99.90
14771;DHT22;7477;45.222;5.688;2022-09-14T07:58:28;21.00;99.90
14771;DHT22;7477;45.222;5.688;2022-09-14T08:01:47;21.10;99.90
14771;DHT22;7477;45.222;5.688;2022-09-14T08:05:07;22.00;99.90
14771;DHT22;7477;45.222;5.688;2022-09-14T08:08:29;21.90;99.90
14771;DHT22;7477;45.222;5.688;2022-09-14T08:11:48;21.40;99.90
14771;DHT22;7477;45.222;5.688;2022-09-14T08:15:08;21.40;99.90
14771;DHT22;7477;45.222;5.688;2022-09-14T08:18:28;22.00;99.90
14771;DHT22;7477;45.222;5.688;2022-09-14T08:21:47;21.40;99.90
14771;DHT22;7477;45.222;5.688;2022-09-14T08:25:07;21.80;99.90
14771;DHT22;7477;45.222;5.688;2022-09-14T08:28:27;21.30;99.90
14771;DHT22;7477;45.222;5.688;2022-09-14T08:31:46;21.50;99.90
14771;DHT22;7477;45.222;5.688;2022-09-14T08:35:06;21.60;99.90
14771;DHT22;7477;45.222;5.688;2022-09-14T08:38:26;21.30;99.90
14771;DHT22;7477;45.222;5.688;2022-09-14T08:45:10;21.20;99.90
14771;DHT22;7477;45.222;5.688;2022-09-14T08:48:36;21.20;99.90
14771;DHT22;7477;45.222;5.688;2022-09-14T08:51:56;21.30;99.90
14771;DHT22;7477;45.222;5.688;2022-09-14T09:03:40;21.50;99.90
14771;DHT22;7477;45.222;5.688;2022-09-14T09:07:41;21.60;99.90
14771;DHT22;7477;45.222;5.688;2022-09-14T09:11:06;21.90;99.90
14771;DHT22;7477;45.222;5.688;2022-09-14T09:14:32;21.90;99.90
14771;DHT22;7477;45.222;5.688;2022-09-14T09:18:00;22.00;99.90
14771;DHT22;7477;45.222;5.688;2022-09-14T09:21:27;22.30;99.90
14771;DHT22;7477;45.222;5.688;2022-09-14T09:24:51;22.40;99.90
14771;DHT22;7477;45.222;5.688;2022-09-14T09:28:12;22.10;99.90
14771;DHT22;7477;45.222;5.688;2022-09-14T09:31:36;22.10;99.90
14771;DHT22;7477;45.222;5.688;2022-09-14T09:34:57;22.00;99.90
14771;DHT22;7477;45.222;5.688;2022-09-14T09:38:19;22.10;99.90
14771;DHT22;7477;45.222;5.688;2022-09-14T09:45:11;22.10;99.90
14771;DHT22;7477;45.222;5.688;2022-09-14T09:52:09;22.20;99.90
14771;DHT22;7477;45.222;5.688;2022-09-14T09:55:39;22.20;99.90
14771;DHT22;7477;45.222;5.688;2022-09-14T09:58:58;22.20;99.90
14771;DHT22;7477;45.222;5.688;2022-09-14T10:02:28;22.30;99.90
14771;DHT22;7477;45.222;5.688;2022-09-14T10:06:02;22.20;99.90
14771;DHT22;7477;45.222;5.688;2022-09-14T10:09:26;22.20;99.90
14771;DHT22;7477;45.222;5.688;2022-09-14T10:12:55;22.20;99.90
14771;DHT22;7477;45.222;5.688;2022-09-14T10:16:16;22.20;99.90
14771;DHT22;7477;45.222;5.688;2022-09-14T10:19:36;22.30;99.90
14771;DHT22;7477;45.222;5.688;2022-09-14T10:22:56;22.30;99.90
14771;DHT22;7477;45.222;5.688;2022-09-14T10:26:36;22.30;99.90
14771;DHT22;7477;45.222;5.688;2022-09-14T10:29:55;22.30;99.90
14771;DHT22;7477;45.222;5.688;2022-09-14T10:33:15;22.50;99.90
14771;DHT22;7477;45.222;5.688;2022-09-14T10:36:48;22.50;99.90
14771;DHT22;7477;45.222;5.688;2022-09-14T10:40:13;22.60;99.90
14771;DHT22;7477;45.222;5.688;2022-09-14T10:50:57;22.80;99.90
14771;DHT22;7477;45.222;5.688;2022-09-14T10:58:23;22.70;99.90
14771;DHT22;7477;45.222;5.688;2022-09-14T11:05:30;23.00;99.90
14771;DHT22;7477;45.222;5.688;2022-09-14T11:09:30;22.90;99.90
14771;DHT22;7477;45.222;5.688;2022-09-14T11:23:51;22.90;99.90
14771;DHT22;7477;45.222;5.688;2022-09-14T11:31:18;23.20;99.90
14771;DHT22;7477;45.222;5.688;2022-09-14T11:35:03;23.10;99.90
14771;DHT22;7477;45.222;5.688;2022-09-14T11:38:30;23.10;99.90
14771;DHT22;7477;45.222;5.688;2022-09-14T11:42:06;23.20;99.90
14771;DHT22;7477;45.222;5.688;2022-09-14T11:45:36;23.30;99.90
14771;DHT22;7477;45.222;5.688;2022-09-14T11:49:24;23.40;99.90
14771;DHT22;7477;45.222;5.688;2022-09-14T11:52:50;23.40;99.90
14771;DHT22;7477;45.222;5.688;2022-09-14T11:56:23;23.50;99.90
14771;DHT22;7477;45.222;5.688;2022-09-14T11:59:53;23.50;99.90
14771;DHT22;7477;45.222;5.688;2022-09-14T12:03:15;23.60;99.90
14771;DHT22;7477;45.222;5.688;2022-09-14T12:13:36;23.60;99.90
14771;DHT22;7477;45.222;5.688;2022-09-14T12:20:37;23.70;99.40
14771;DHT22;7477;45.222;5.688;2022-09-14T12:24:13;23.80;99.00
14771;DHT22;7477;45.222;5.688;2022-09-14T12:27:36;23.80;99.00
14771;DHT22;7477;45.222;5.688;2022-09-14T12:34:23;23.80;98.80
14771;DHT22;7477;45.222;5.688;2022-09-14T12:37:43;23.90;98.60
14771;DHT22;7477;45.222;5.688;2022-09-14T12:44:42;23.90;98.60
14771;DHT22;7477;45.222;5.688;2022-09-14T12:48:01;23.90;98.50
14771;DHT22;7477;45.222;5.688;2022-09-14T12:54:56;23.90;98.60
14771;DHT22;7477;45.222;5.688;2022-09-14T12:58:48;23.90;98.50
14771;DHT22;7477;45.222;5.688;2022-09-14T13:06:10;23.90;98.30
14771;DHT22;7477;45.222;5.688;2022-09-14T13:09:30;24.00;98.20
14771;DHT22;7477;45.222;5.688;2022-09-14T13:12:50;24.00;98.00
14771;DHT22;7477;45.222;5.688;2022-09-14T13:16:17;24.00;98.10
14771;DHT22;7477;45.222;5.688;2022-09-14T13:19:37;24.00;98.10
14771;DHT22;7477;45.222;5.688;2022-09-14T13:22:57;24.00;98.00
14771;DHT22;7477;45.222;5.688;2022-09-14T13:26:25;23.90;98.70
14771;DHT22;7477;45.222;5.688;2022-09-14T13:29:47;23.90;98.90
14771;DHT22;7477;45.222;5.688;2022-09-14T13:33:16;23.90;99.10
14771;DHT22;7477;45.222;5.688;2022-09-14T13:36:42;23.80;99.40
14771;DHT22;7477;45.222;5.688;2022-09-14T13:40:02;23.90;99.30
14771;DHT22;7477;45.222;5.688;2022-09-14T13:43:22;23.90;99.40
14771;DHT22;7477;45.222;5.688;2022-09-14T13:46:42;24.00;99.70
14771;DHT22;7477;45.222;5.688;2022-09-14T13:50:02;24.00;99.90
14771;DHT22;7477;45.222;5.688;2022-09-14T13:53:48;24.00;99.70
14771;DHT22;7477;45.222;5.688;2022-09-14T13:57:19;24.00;99.80
14771;DHT22;7477;45.222;5.688;2022-09-14T14:04:37;24.00;99.80
14771;DHT22;7477;45.222;5.688;2022-09-14T14:07:58;24.00;99.80
14771;DHT22;7477;45.222;5.688;2022-09-14T14:11:34;24.00;99.80
14771;DHT22;7477;45.222;5.688;2022-09-14T14:15:05;24.00;99.80
14771;DHT22;7477;45.222;5.688;2022-09-14T14:18:39;24.00;99.80
14771;DHT22;7477;45.222;5.688;2022-09-14T14:25:42;24.00;99.70
14771;DHT22;7477;45.222;5.688;2022-09-14T14:29:08;24.00;99.70
14771;DHT22;7477;45.222;5.688;2022-09-14T14:32:28;24.00;99.60
14771;DHT22;7477;45.222;5.688;2022-09-14T14:35:49;24.10;99.60
14771;DHT22;7477;45.222;5.688;2022-09-14T14:39:12;24.10;99.70
14771;DHT22;7477;45.222;5.688;2022-09-14T14:42:31;24.10;99.60
14771;DHT22;7477;45.222;5.688;2022-09-14T14:45:54;24.10;99.60
14771;DHT22;7477;45.222;5.688;2022-09-14T14:49:16;24.10;99.50
14771;DHT22;7477;45.222;5.688;2022-09-14T14:52:35;24.10;99.60
14771;DHT22;7477;45.222;5.688;2022-09-14T14:55:55;24.20;99.60
14771;DHT22;7477;45.222;5.688;2022-09-14T15:02:37;24.10;99.60
14771;DHT22;7477;45.222;5.688;2022-09-14T15:05:56;24.20;99.50
14771;DHT22;7477;45.222;5.688;2022-09-14T15:09:26;24.10;99.50
14771;DHT22;7477;45.222;5.688;2022-09-14T15:12:47;24.20;99.50
14771;DHT22;7477;45.222;5.688;2022-09-14T15:16:06;24.20;99.50
14771;DHT22;7477;45.222;5.688;2022-09-14T15:19:26;24.20;99.60
14771;DHT22;7477;45.222;5.688;2022-09-14T15:22:46;24.20;99.40
14771;DHT22;7477;45.222;5.688;2022-09-14T15:26:05;24.30;99.50
14771;DHT22;7477;45.222;5.688;2022-09-14T15:29:25;24.30;99.50
14771;DHT22;7477;45.222;5.688;2022-09-14T15:32:45;24.30;99.60
14771;DHT22;7477;45.222;5.688;2022-09-14T15:36:04;24.30;99.40
14771;DHT22;7477;45.222;5.688;2022-09-14T15:39:25;24.30;99.60
14771;DHT22;7477;45.222;5.688;2022-09-14T15:42:45;24.40;99.80
14771;DHT22;7477;45.222;5.688;2022-09-14T15:46:04;24.50;99.80
14771;DHT22;7477;45.222;5.688;2022-09-14T15:49:24;24.80;99.90
14771;DHT22;7477;45.222;5.688;2022-09-14T15:52:44;25.20;99.40
14771;DHT22;7477;45.222;5.688;2022-09-14T15:56:14;25.20;98.70
14771;DHT22;7477;45.222;5.688;2022-09-14T15:59:34;24.70;99.00
14771;DHT22;7477;45.222;5.688;2022-09-14T16:02:53;24.60;99.00
14771;DHT22;7477;45.222;5.688;2022-09-14T16:06:13;24.60;99.40
14771;DHT22;7477;45.222;5.688;2022-09-14T16:09:32;24.60;99.20
14771;DHT22;7477;45.222;5.688;2022-09-14T16:12:52;24.70;99.00
14771;DHT22;7477;45.222;5.688;2022-09-14T16:16:14;24.60;98.90
14771;DHT22;7477;45.222;5.688;2022-09-14T16:19:34;24.80;98.90
14771;DHT22;7477;45.222;5.688;2022-09-14T16:22:53;24.80;99.00
14771;DHT22;7477;45.222;5.688;2022-09-14T16:26:18;24.80;98.90
14771;DHT22;7477;45.222;5.688;2022-09-14T16:29:38;24.80;98.30
14771;DHT22;7477;45.222;5.688;2022-09-14T16:32:58;24.70;99.20
14771;DHT22;7477;45.222;5.688;2022-09-14T16:36:20;24.70;99.30
14771;DHT22;7477;45.222;5.688;2022-09-14T16:39:40;24.70;99.30
14771;DHT22;7477;45.222;5.688;2022-09-14T16:42:59;24.60;99.30
14771;DHT22;7477;45.222;5.688;2022-09-14T16:46:19;24.60;99.50
14771;DHT22;7477;45.222;5.688;2022-09-14T16:49:38;24.60;99.70
14771;DHT22;7477;45.222;5.688;2022-09-14T16:52:58;24.60;99.70
14771;DHT22;7477;45.222;5.688;2022-09-14T16:56:22;24.60;99.60
14771;DHT22;7477;45.222;5.688;2022-09-14T16:59:42;24.70;99.00
14771;DHT22;7477;45.222;5.688;2022-09-14T17:03:02;24.70;99.60
14771;DHT22;7477;45.222;5.688;2022-09-14T17:06:30;24.70;99.60
14771;DHT22;7477;45.222;5.688;2022-09-14T17:09:49;24.70;99.70
14771;DHT22;7477;45.222;5.688;2022-09-14T17:13:09;24.80;99.20
14771;DHT22;7477;45.222;5.688;2022-09-14T17:16:28;24.80;98.50
14771;DHT22;7477;45.222;5.688;2022-09-14T17:19:48;24.70;98.50
14771;DHT22;7477;45.222;5.688;2022-09-14T17:23:07;24.70;98.30
14771;DHT22;7477;45.222;5.688;2022-09-14T17:26:26;24.70;99.40
14771;DHT22;7477;45.222;5.688;2022-09-14T17:29:45;24.70;99.40
14771;DHT22;7477;45.222;5.688;2022-09-14T17:33:04;24.70;99.50
14771;DHT22;7477;45.222;5.688;2022-09-14T17:36:24;24.70;97.90
14771;DHT22;7477;45.222;5.688;2022-09-14T17:39:44;24.70;98.00
14771;DHT22;7477;45.222;5.688;2022-09-14T17:43:05;24.70;97.70
14771;DHT22;7477;45.222;5.688;2022-09-14T17:46:24;24.70;97.20
14771;DHT22;7477;45.222;5.688;2022-09-14T17:49:43;24.70;97.60
14771;DHT22;7477;45.222;5.688;2022-09-14T17:53:02;24.70;98.00
14771;DHT22;7477;45.222;5.688;2022-09-14T17:56:23;24.70;98.70
14771;DHT22;7477;45.222;5.688;2022-09-14T17:59:43;24.70;99.00
14771;DHT22;7477;45.222;5.688;2022-09-14T18:03:02;24.70;98.50
14771;DHT22;7477;45.222;5.688;2022-09-14T18:06:25;24.70;98.30
14771;DHT22;7477;45.222;5.688;2022-09-14T18:09:45;24.70;98.40
14771;DHT22;7477;45.222;5.688;2022-09-14T18:13:04;24.60;97.70
14771;DHT22;7477;45.222;5.688;2022-09-14T18:16:24;24.60;97.50
14771;DHT22;7477;45.222;5.688;2022-09-14T18:19:43;24.60;98.90
14771;DHT22;7477;45.222;5.688;2022-09-14T18:23:02;24.60;98.40
14771;DHT22;7477;45.222;5.688;2022-09-14T18:26:23;24.60;99.00
14771;DHT22;7477;45.222;5.688;2022-09-14T18:29:43;24.60;98.60
14771;DHT22;7477;45.222;5.688;2022-09-14T18:33:02;24.60;98.40
14771;DHT22;7477;45.222;5.688;2022-09-14T18:36:21;24.60;98.00
14771;DHT22;7477;45.222;5.688;2022-09-14T18:39:41;24.60;97.90
14771;DHT22;7477;45.222;5.688;2022-09-14T18:43:01;24.60;98.40
14771;DHT22;7477;45.222;5.688;2022-09-14T18:46:20;24.60;98.60
14771;DHT22;7477;45.222;5.688;2022-09-14T18:49:39;24.60;99.10
14771;DHT22;7477;45.222;5.688;2022-09-14T18:52:59;24.60;99.50
14771;DHT22;7477;45.222;5.688;2022-09-14T18:56:19;24.50;99.90
14771;DHT22;7477;45.222;5.688;2022-09-14T18:59:38;24.40;99.80
14771;DHT22;7477;45.222;5.688;2022-09-14T19:02:58;24.40;99.90
14771;DHT22;7477;45.222;5.688;2022-09-14T19:06:18;24.30;99.50
14771;DHT22;7477;45.222;5.688;2022-09-14T19:09:38;24.30;99.90
14771;DHT22;7477;45.222;5.688;2022-09-14T19:12:57;24.30;99.90
14771;DHT22;7477;45.222;5.688;2022-09-14T19:16:17;24.20;99.90
14771;DHT22;7477;45.222;5.688;2022-09-14T19:19:37;24.20;99.90
14771;DHT22;7477;45.222;5.688;2022-09-14T19:22:56;24.30;99.90
14771;DHT22;7477;45.222;5.688;2022-09-14T19:26:19;24.20;99.90
14771;DHT22;7477;45.222;5.688;2022-09-14T19:29:41;24.10;99.90
14771;DHT22;7477;45.222;5.688;2022-09-14T19:33:01;24.00;99.90
14771;DHT22;7477;45.222;5.688;2022-09-14T19:36:22;24.20;99.90
14771;DHT22;7477;45.222;5.688;2022-09-14T19:39:41;24.30;99.90
14771;DHT22;7477;45.222;5.688;2022-09-14T19:43:00;24.10;99.90
14771;DHT22;7477;45.222;5.688;2022-09-14T19:46:20;24.00;99.90
14771;DHT22;7477;45.222;5.688;2022-09-14T19:49:41;23.90;99.90
14771;DHT22;7477;45.222;5.688;2022-09-14T19:53:00;24.00;99.90
14771;DHT22;7477;45.222;5.688;2022-09-14T19:56:22;24.00;99.90
14771;DHT22;7477;45.222;5.688;2022-09-14T19:59:43;24.00;99.90
14771;DHT22;7477;45.222;5.688;2022-09-14T20:03:02;24.30;99.90
14771;DHT22;7477;45.222;5.688;2022-09-14T20:06:24;24.40;99.90
14771;DHT22;7477;45.222;5.688;2022-09-14T20:09:44;24.40;99.90
14771;DHT22;7477;45.222;5.688;2022-09-14T20:13:03;24.30;99.90
14771;DHT22;7477;45.222;5.688;2022-09-14T20:16:36;24.40;99.90
14771;DHT22;7477;45.222;5.688;2022-09-14T20:19:56;24.40;99.90
14771;DHT22;7477;45.222;5.688;2022-09-14T20:23:16;24.40;99.90
14771;DHT22;7477;45.222;5.688;2022-09-14T20:26:35;24.20;99.90
14771;DHT22;7477;45.222;5.688;2022-09-14T20:29:54;24.40;99.90
14771;DHT22;7477;45.222;5.688;2022-09-14T20:33:13;24.40;99.90
14771;DHT22;7477;45.222;5.688;2022-09-14T20:36:33;24.40;99.90
14771;DHT22;7477;45.222;5.688;2022-09-14T20:39:52;24.30;99.90
14771;DHT22;7477;45.222;5.688;2022-09-14T20:43:11;24.10;99.20
14771;DHT22;7477;45.222;5.688;2022-09-14T20:46:32;24.00;99.90
14771;DHT22;7477;45.222;5.688;2022-09-14T20:49:53;24.00;98.60
14771;DHT22;7477;45.222;5.688;2022-09-14T20:53:12;23.90;99.60
14771;DHT22;7477;45.222;5.688;2022-09-14T20:56:33;24.00;99.90
14771;DHT22;7477;45.222;5.688;2022-09-14T20:59:53;24.00;99.00
14771;DHT22;7477;45.222;5.688;2022-09-14T21:03:12;24.10;99.90
14771;DHT22;7477;45.222;5.688;2022-09-14T21:06:35;23.90;99.90
14771;DHT22;7477;45.222;5.688;2022-09-14T21:09:54;23.80;99.90
14771;DHT22;7477;45.222;5.688;2022-09-14T21:13:14;23.60;99.90
14771;DHT22;7477;45.222;5.688;2022-09-14T21:16:40;22.90;99.90
14771;DHT22;7477;45.222;5.688;2022-09-14T21:20:04;22.30;99.90
14771;DHT22;7477;45.222;5.688;2022-09-14T21:23:23;21.80;99.90
14771;DHT22;7477;45.222;5.688;2022-09-14T21:26:43;21.90;99.90
14771;DHT22;7477;45.222;5.688;2022-09-14T21:30:02;21.80;99.90
14771;DHT22;7477;45.222;5.688;2022-09-14T21:33:22;21.70;99.90
14771;DHT22;7477;45.222;5.688;2022-09-14T21:36:45;21.20;99.90
14771;DHT22;7477;45.222;5.688;2022-09-14T21:40:05;20.70;99.90
14771;DHT22;7477;45.222;5.688;2022-09-14T21:43:24;20.70;99.90
14771;DHT22;7477;45.222;5.688;2022-09-14T21:46:44;20.40;99.90
14771;DHT22;7477;45.222;5.688;2022-09-14T21:50:03;20.40;99.90
14771;DHT22;7477;45.222;5.688;2022-09-14T21:53:24;20.20;99.90
14771;DHT22;7477;45.222;5.688;2022-09-14T21:56:44;20.10;99.90
14771;DHT22;7477;45.222;5.688;2022-09-14T22:00:07;20.20;99.90
14771;DHT22;7477;45.222;5.688;2022-09-14T22:03:28;20.30;99.90
14771;DHT22;7477;45.222;5.688;2022-09-14T22:06:48;20.20;99.90
14771;DHT22;7477;45.222;5.688;2022-09-14T22:10:09;20.10;99.90
14771;DHT22;7477;45.222;5.688;2022-09-14T22:13:29;20.00;99.90
14771;DHT22;7477;45.222;5.688;2022-09-14T22:16:49;20.00;99.90
14771;DHT22;7477;45.222;5.688;2022-09-14T22:20:09;20.00;99.90
14771;DHT22;7477;45.222;5.688;2022-09-14T22:23:29;19.90;99.90
14771;DHT22;7477;45.222;5.688;2022-09-14T22:26:49;19.90;99.90
14771;DHT22;7477;45.222;5.688;2022-09-14T22:30:10;19.90;99.90
14771;DHT22;7477;45.222;5.688;2022-09-14T22:33:29;19.70;99.90
14771;DHT22;7477;45.222;5.688;2022-09-14T22:36:48;19.70;99.90
14771;DHT22;7477;45.222;5.688;2022-09-14T22:40:08;19.70;99.90
14771;DHT22;7477;45.222;5.688;2022-09-14T22:43:29;19.60;99.90
14771;DHT22;7477;45.222;5.688;2022-09-14T22:46:48;19.60;99.90
14771;DHT22;7477;45.222;5.688;2022-09-14T22:50:08;19.60;99.90
14771;DHT22;7477;45.222;5.688;2022-09-14T22:53:28;19.50;99.90
14771;DHT22;7477;45.222;5.688;2022-09-14T22:56:48;19.50;99.90
14771;DHT22;7477;45.222;5.688;2022-09-14T23:00:08;19.50;99.90
14771;DHT22;7477;45.222;5.688;2022-09-14T23:03:28;19.50;99.90
14771;DHT22;7477;45.222;5.688;2022-09-14T23:06:47;19.50;99.90
14771;DHT22;7477;45.222;5.688;2022-09-14T23:10:06;19.40;99.90
14771;DHT22;7477;45.222;5.688;2022-09-14T23:13:26;19.30;99.90
14771;DHT22;7477;45.222;5.688;2022-09-14T23:16:45;19.30;99.90
14771;DHT22;7477;45.222;5.688;2022-09-14T23:20:05;19.30;99.90
14771;DHT22;7477;45.222;5.688;2022-09-14T23:23:24;19.30;99.90
14771;DHT22;7477;45.222;5.688;2022-09-14T23:26:44;19.30;99.90
14771;DHT22;7477;45.222;5.688;2022-09-14T23:30:03;19.30;99.90
14771;DHT22;7477;45.222;5.688;2022-09-14T23:33:23;19.30;99.90